createdAt,value
2018-05-12T00:01:39.298Z,12.20
2018-05-12T00:04:10.068Z,12.67
2018-05-12T00:06:40.823Z,12.97
2018-05-12T00:09:11.588Z,12.90
2018-05-12T00:11:42.332Z,12.10
2018-05-12T00:14:13.111Z,11.90
2018-05-12T00:16:43.875Z,11.43
2018-05-12T00:19:14.635Z,10.53
2018-05-12T00:21:45.453Z,12.60
2018-05-12T00:24:16.232Z,12.17
2018-05-12T00:26:46.990Z,11.30
2018-05-12T00:29:17.764Z,11.67
2018-05-12T00:31:48.528Z,13.73
2018-05-12T00:34:19.283Z,13.70
2018-05-12T00:36:50.061Z,13.23
2018-05-12T00:39:20.832Z,13.73
2018-05-12T00:41:51.575Z,13.30
2018-05-12T00:44:23.131Z,14.70
2018-05-12T00:46:53.903Z,12.57
2018-05-12T00:49:24.673Z,15.73
2018-05-12T00:51:55.431Z,13.73
2018-05-12T00:54:26.271Z,13.67
2018-05-12T00:56:57.025Z,14.47
2018-05-12T00:59:27.829Z,13.13
2018-05-12T01:01:58.571Z,12.73
2018-05-12T01:04:29.360Z,13.37
2018-05-12T01:07:00.103Z,13.97
2018-05-12T01:09:30.871Z,13.37
2018-05-12T01:12:01.611Z,13.57
2018-05-12T01:14:32.397Z,13.70
2018-05-12T01:17:03.140Z,12.27
2018-05-12T01:19:33.904Z,13.57
2018-05-12T01:22:04.653Z,13.30
2018-05-12T01:24:35.434Z,13.60
2018-05-12T01:27:06.177Z,13.33
2018-05-12T01:29:36.945Z,13.23
2018-05-12T01:32:07.707Z,14.50
2018-05-12T01:34:38.473Z,13.03
2018-05-12T01:37:09.250Z,14.27
2018-05-12T01:39:40.042Z,14.10
2018-05-12T01:42:10.796Z,13.60
2018-05-12T01:44:41.550Z,12.87
2018-05-12T01:47:12.289Z,12.47
2018-05-12T01:49:43.075Z,14.63
2018-05-12T01:52:13.879Z,13.90
2018-05-12T01:54:44.653Z,13.40
2018-05-12T01:57:15.408Z,13.53
2018-05-12T01:59:46.170Z,13.80
2018-05-12T02:02:16.919Z,14.53
2018-05-12T02:04:47.696Z,16.03
2018-05-12T02:07:18.466Z,15.50
2018-05-12T02:09:49.225Z,14.97
2018-05-12T02:12:19.983Z,16.17
2018-05-12T02:14:50.756Z,15.77
2018-05-12T02:17:21.535Z,16.17
2018-05-12T02:19:52.331Z,15.40
2018-05-12T02:22:23.089Z,15.00
2018-05-12T02:24:53.872Z,14.87
2018-05-12T02:27:24.639Z,17.03
2018-05-12T02:29:55.401Z,15.70
2018-05-12T02:32:26.131Z,15.50
2018-05-12T02:34:56.923Z,15.37
2018-05-12T02:37:27.677Z,17.00
2018-05-12T02:39:58.470Z,15.50
2018-05-12T02:42:29.248Z,17.90
2018-05-12T02:45:00.008Z,15.80
2018-05-12T02:47:30.796Z,14.73
2018-05-12T02:50:01.551Z,16.53
2018-05-12T02:52:32.343Z,18.73
2018-05-12T02:55:03.122Z,15.70
2018-05-12T02:57:33.908Z,15.90
2018-05-12T03:00:04.677Z,14.60
2018-05-12T03:02:35.424Z,18.07
2018-05-12T03:05:06.187Z,16.13
2018-05-12T03:07:36.954Z,16.60
2018-05-12T03:10:07.781Z,16.03
2018-05-12T03:12:38.519Z,15.53
2018-05-12T03:15:09.299Z,15.50
2018-05-12T03:17:40.041Z,17.20
2018-05-12T03:20:10.829Z,16.57
2018-05-12T03:22:41.628Z,17.20
2018-05-12T03:25:12.409Z,16.50
2018-05-12T03:27:43.150Z,16.67
2018-05-12T03:30:13.919Z,15.60
2018-05-12T03:32:44.668Z,16.80
2018-05-12T03:35:15.449Z,17.20
2018-05-12T03:37:46.216Z,17.80
2018-05-12T03:40:17.007Z,18.23
2018-05-12T03:42:47.763Z,15.47
2018-05-12T03:45:18.585Z,16.80
2018-05-12T03:47:49.335Z,17.80
2018-05-12T03:50:20.104Z,16.10
2018-05-12T03:52:50.871Z,15.50
2018-05-12T03:55:21.654Z,17.33
2018-05-12T03:57:52.395Z,16.40
2018-05-12T04:00:23.172Z,16.97
2018-05-12T04:02:53.929Z,17.10
2018-05-12T04:05:37.112Z,17.30
2018-05-12T04:08:20.315Z,17.33
2018-05-12T04:11:03.535Z,17.73
2018-05-12T04:13:34.301Z,17.50
2018-05-12T04:16:05.108Z,16.80
2018-05-12T04:18:35.848Z,17.80
2018-05-12T04:21:06.691Z,15.93
2018-05-12T04:23:37.394Z,17.50
2018-05-12T04:26:08.165Z,14.87
2018-05-12T04:28:38.910Z,16.50
2018-05-12T04:31:09.775Z,18.10
2018-05-12T04:33:40.552Z,16.57
2018-05-12T04:36:11.339Z,17.33
2018-05-12T04:38:42.088Z,15.40
2018-05-12T04:41:12.858Z,16.90
2018-05-12T04:43:43.611Z,15.53
2018-05-12T04:46:14.435Z,16.50
2018-05-12T04:48:45.191Z,17.50
2018-05-12T04:51:15.963Z,17.30
2018-05-12T04:53:46.728Z,16.83
2018-05-12T04:56:17.523Z,15.50
2018-05-12T04:58:48.274Z,15.80
2018-05-12T05:01:19.059Z,14.87
2018-05-12T05:03:49.848Z,13.50
2018-05-12T05:06:20.682Z,13.93
2018-05-12T05:08:51.398Z,14.57
2018-05-12T05:11:22.178Z,15.10
2018-05-12T05:13:52.955Z,13.77
2018-05-12T05:16:23.719Z,13.30
2018-05-12T05:18:54.460Z,14.57
2018-05-12T05:21:25.217Z,14.20
2018-05-12T05:23:55.995Z,15.20
2018-05-12T05:26:26.783Z,13.40
2018-05-12T05:28:57.537Z,13.53
2018-05-12T05:31:28.352Z,15.63
2018-05-12T05:33:59.127Z,13.33
2018-05-12T05:36:29.900Z,15.10
2018-05-12T05:39:00.655Z,15.83
2018-05-12T05:41:31.525Z,14.27
2018-05-12T05:44:02.255Z,16.20
2018-05-12T05:46:33.020Z,16.77
2018-05-12T05:49:03.797Z,15.83
2018-05-12T05:51:34.547Z,14.33
2018-05-12T05:54:05.294Z,15.10
2018-05-12T05:56:36.097Z,14.60
2018-05-12T05:59:06.860Z,15.03
2018-05-12T06:01:37.626Z,16.40
2018-05-12T06:04:08.367Z,15.67
2018-05-12T06:06:39.137Z,16.30
2018-05-12T06:09:09.897Z,16.17
2018-05-12T06:11:40.687Z,15.90
2018-05-12T06:14:11.441Z,16.33
2018-05-12T06:16:42.233Z,15.90
2018-05-12T06:19:12.976Z,16.73
2018-05-12T06:21:43.750Z,16.63
2018-05-12T06:24:14.487Z,16.13
2018-05-12T06:26:45.248Z,16.33
2018-05-12T06:29:16.014Z,16.33
2018-05-12T06:31:46.785Z,15.67
2018-05-12T06:34:17.521Z,15.70
2018-05-12T06:36:48.309Z,16.20
2018-05-12T06:39:19.087Z,17.10
2018-05-12T06:41:49.831Z,16.20
2018-05-12T06:44:20.586Z,15.60
2018-05-12T06:46:51.360Z,15.83
2018-05-12T06:49:22.100Z,16.70
2018-05-12T06:51:52.851Z,16.70
2018-05-12T06:54:23.602Z,16.33
2018-05-12T06:56:54.367Z,15.00
2018-05-12T06:59:25.108Z,16.33
2018-05-12T07:01:55.864Z,16.93
2018-05-12T07:04:26.631Z,14.57
2018-05-12T07:06:57.438Z,14.10
2018-05-12T07:09:28.197Z,14.37
2018-05-12T07:11:59.070Z,14.77
2018-05-12T07:14:29.924Z,15.00
2018-05-12T07:17:00.763Z,13.90
2018-05-12T07:19:31.563Z,13.73
2018-05-12T07:22:02.345Z,14.70
2018-05-12T07:24:33.149Z,13.90
2018-05-12T07:27:04.001Z,13.63
2018-05-12T07:29:34.806Z,14.57
2018-05-12T07:32:05.548Z,14.33
2018-05-12T07:34:36.328Z,14.80
2018-05-12T07:37:07.096Z,15.20
2018-05-12T07:39:37.891Z,13.30
2018-05-12T07:42:08.678Z,15.80
2018-05-12T07:44:39.471Z,12.70
2018-05-12T07:47:10.255Z,13.33
2018-05-12T07:49:40.992Z,13.73
2018-05-12T07:52:11.767Z,14.60
2018-05-12T07:54:42.531Z,12.07
2018-05-12T07:57:13.552Z,12.50
2018-05-12T07:59:44.308Z,12.50
2018-05-12T08:02:15.056Z,12.77
2018-05-12T08:04:45.803Z,12.57
2018-05-12T08:07:16.579Z,13.37
2018-05-12T08:09:47.342Z,12.23
2018-05-12T08:12:33.067Z,12.20
2018-05-12T08:15:03.867Z,12.23
2018-05-12T08:17:34.663Z,12.50
2018-05-12T08:20:05.431Z,11.60
2018-05-12T08:22:36.194Z,12.50
2018-05-12T08:25:06.964Z,11.17
2018-05-12T08:27:37.741Z,13.17
2018-05-12T08:30:08.507Z,13.03
2018-05-12T08:32:39.286Z,12.40
2018-05-12T08:35:10.053Z,10.47
2018-05-12T08:37:40.855Z,11.00
2018-05-12T08:40:11.617Z,11.23
2018-05-12T08:42:42.398Z,11.33
2018-05-12T08:45:13.182Z,12.43
2018-05-12T08:47:44.014Z,12.80
2018-05-12T08:50:14.850Z,12.17
2018-05-12T08:52:45.627Z,10.90
2018-05-12T08:55:16.469Z,11.77
2018-05-12T08:57:47.161Z,10.00
2018-05-12T09:00:17.902Z,10.30
2018-05-12T09:02:48.660Z,11.57
2018-05-12T09:05:19.419Z,11.47
2018-05-12T09:07:50.226Z,9.30
2018-05-12T09:10:20.960Z,9.97
2018-05-12T09:12:51.769Z,9.47
2018-05-12T09:15:22.532Z,8.80
2018-05-12T09:17:53.308Z,9.83
2018-05-12T09:20:24.054Z,10.10
2018-05-12T09:22:54.831Z,9.97
2018-05-12T09:25:25.595Z,9.77
2018-05-12T09:27:56.372Z,10.00
2018-05-12T09:30:27.140Z,10.67
2018-05-12T09:32:57.898Z,9.30
2018-05-12T09:35:28.661Z,9.90
2018-05-12T09:37:59.436Z,11.00
2018-05-12T09:40:30.204Z,12.53
2018-05-12T09:43:00.983Z,11.50
2018-05-12T09:45:31.726Z,11.00
2018-05-12T09:48:02.498Z,12.90
2018-05-12T09:50:33.267Z,11.83
2018-05-12T09:53:18.979Z,11.47
2018-05-12T09:55:49.743Z,13.13
2018-05-12T09:58:20.520Z,12.47
2018-05-12T10:00:51.255Z,11.20
2018-05-12T10:03:22.089Z,9.00
2018-05-12T10:05:52.829Z,13.47
2018-05-12T10:08:23.651Z,13.20
2018-05-12T10:10:54.419Z,12.57
2018-05-12T10:13:25.206Z,13.20
2018-05-12T10:15:55.970Z,11.60
2018-05-12T10:18:26.747Z,11.30
2018-05-12T10:20:57.490Z,11.37
2018-05-12T10:23:28.259Z,11.43
2018-05-12T10:25:59.024Z,10.40
2018-05-12T10:28:29.780Z,10.90
2018-05-12T10:31:00.520Z,11.80
2018-05-12T10:33:31.348Z,11.30
2018-05-12T10:36:02.104Z,11.10
2018-05-12T10:38:32.877Z,10.63
2018-05-12T10:41:03.632Z,10.73
2018-05-12T10:43:34.415Z,10.43
2018-05-12T10:46:05.196Z,10.30
2018-05-12T10:48:36.054Z,10.13
2018-05-12T10:51:06.822Z,10.67
2018-05-12T10:53:37.620Z,9.93
2018-05-12T10:59:40.227Z,8.97
2018-05-12T11:02:11.136Z,8.73
2018-05-12T11:04:41.935Z,8.63
2018-05-12T11:07:12.747Z,8.63
2018-05-12T11:09:43.621Z,9.67
2018-05-12T11:12:14.599Z,8.30
2018-05-12T11:14:45.430Z,7.90
2018-05-12T11:17:16.236Z,8.57
2018-05-12T11:19:47.117Z,7.60
2018-05-12T11:22:17.915Z,8.67
2018-05-12T11:24:48.795Z,7.07
2018-05-12T11:27:19.620Z,7.33
2018-05-12T11:29:50.493Z,7.43
2018-05-12T11:32:21.318Z,7.20
2018-05-12T11:34:52.125Z,7.13
2018-05-12T11:37:22.981Z,7.07
2018-05-12T11:39:54.982Z,6.20
2018-05-12T11:42:25.885Z,7.70
2018-05-12T11:44:56.726Z,6.27
2018-05-12T11:47:27.563Z,5.90
2018-05-12T11:49:58.474Z,7.20
2018-05-12T11:52:29.383Z,6.70
2018-05-12T11:55:00.269Z,6.50
2018-05-12T11:57:31.109Z,6.27
2018-05-12T12:00:02.013Z,7.03
2018-05-12T12:02:33.053Z,6.07
2018-05-12T12:05:03.825Z,7.00
2018-05-12T12:07:34.634Z,6.60
2018-05-12T12:10:05.471Z,6.23
2018-05-12T12:12:36.431Z,7.20
2018-05-12T12:15:07.301Z,7.67
2018-05-12T12:17:38.120Z,6.73
2018-05-12T12:20:09.001Z,6.47
2018-05-12T12:22:39.825Z,6.37
2018-05-12T12:25:10.788Z,6.87
2018-05-12T12:27:41.610Z,7.07
2018-05-12T12:30:12.466Z,6.53
2018-05-12T12:32:43.256Z,6.83
2018-05-12T12:35:14.148Z,6.73
2018-05-12T12:37:45.150Z,7.13
2018-05-12T12:40:15.981Z,6.10
2018-05-12T12:42:46.759Z,6.70
2018-05-12T12:45:17.567Z,5.90
2018-05-12T12:47:48.377Z,6.27
2018-05-12T12:50:19.185Z,6.20
2018-05-12T12:52:50.004Z,6.73
2018-05-12T12:55:20.808Z,6.10
2018-05-12T12:57:51.605Z,6.73
2018-05-12T13:00:22.414Z,6.10
2018-05-12T13:02:53.214Z,6.30
2018-05-12T13:05:24.023Z,6.70
2018-05-12T13:07:54.820Z,6.27
2018-05-12T13:10:25.759Z,8.63
2018-05-12T13:12:56.581Z,5.17
2018-05-12T13:15:27.380Z,5.80
2018-05-12T13:17:58.224Z,6.07
2018-05-12T13:20:29.146Z,5.67
2018-05-12T13:22:59.940Z,6.23
2018-05-12T13:25:30.756Z,6.20
2018-05-12T13:28:01.606Z,5.80
2018-05-12T13:30:32.412Z,6.87
2018-05-12T13:33:03.200Z,6.47
2018-05-12T13:35:34.098Z,7.10
2018-05-12T13:38:04.951Z,6.60
2018-05-12T13:40:35.792Z,5.57
2018-05-12T13:43:06.696Z,5.77
2018-05-12T13:45:37.635Z,6.33
2018-05-12T13:48:08.346Z,5.50
2018-05-12T13:50:39.180Z,6.60
2018-05-12T13:53:10.146Z,5.47
2018-05-12T13:55:41.075Z,5.67
2018-05-12T13:58:11.853Z,5.97
2018-05-12T14:00:42.669Z,5.90
2018-05-12T14:03:13.461Z,7.40
2018-05-12T14:05:44.265Z,7.20
2018-05-12T14:08:15.083Z,7.27
2018-05-12T14:10:45.876Z,7.80
2018-05-12T14:13:16.660Z,7.30
2018-05-12T14:15:47.748Z,6.90
2018-05-12T14:18:18.567Z,8.40
2018-05-12T14:20:49.520Z,8.00
2018-05-12T14:23:20.334Z,7.63
2018-05-12T14:25:51.184Z,8.27
2018-05-12T14:28:22.017Z,7.20
2018-05-12T14:30:52.823Z,6.80
2018-05-12T14:33:23.603Z,6.70
2018-05-12T14:35:54.456Z,6.60
2018-05-12T14:38:25.268Z,5.90
2018-05-12T14:40:56.216Z,6.63
2018-05-12T14:43:27.061Z,5.77
2018-05-12T14:45:57.982Z,5.90
2018-05-12T14:48:28.822Z,6.17
2018-05-12T14:50:59.671Z,5.57
2018-05-12T14:53:30.500Z,5.80
2018-05-12T14:56:01.410Z,6.57
2018-05-12T14:58:32.232Z,5.33
2018-05-12T15:01:03.057Z,5.20
2018-05-12T15:03:33.852Z,5.20
2018-05-12T15:06:04.697Z,4.57
2018-05-12T15:08:35.519Z,4.60
2018-05-12T15:11:06.339Z,4.70
2018-05-12T15:13:37.144Z,4.50
2018-05-12T15:16:07.994Z,5.40
2018-05-12T15:18:38.809Z,5.07
2018-05-12T15:21:09.644Z,5.27
2018-05-12T15:23:40.427Z,4.37
2018-05-12T15:26:11.274Z,4.20
2018-05-12T15:28:42.110Z,4.03
2018-05-12T15:31:12.967Z,4.70
2018-05-12T15:33:43.778Z,4.97
2018-05-12T15:36:14.685Z,4.30
2018-05-12T15:38:45.452Z,5.30
2018-05-12T15:41:16.276Z,4.50
2018-05-12T15:43:47.098Z,4.73
2018-05-12T15:46:18.030Z,4.60
2018-05-12T15:48:48.854Z,4.63
2018-05-12T15:51:19.681Z,4.60
2018-05-12T15:53:50.484Z,4.50
2018-05-12T15:56:21.394Z,4.80
2018-05-12T15:58:52.260Z,5.33
2018-05-12T16:01:23.156Z,4.80
2018-05-12T16:03:53.943Z,5.40
2018-05-12T16:06:24.747Z,5.10
2018-05-12T16:08:55.573Z,4.60
2018-05-12T16:11:26.409Z,5.23
2018-05-12T16:13:57.205Z,4.73
2018-05-12T16:16:28.119Z,4.97
2018-05-12T16:18:58.927Z,5.40
2018-05-12T16:21:29.761Z,6.33
2018-05-12T16:24:00.576Z,6.00
2018-05-12T16:26:31.424Z,5.23
2018-05-12T16:29:02.341Z,5.77
2018-05-12T16:31:33.212Z,6.90
2018-05-12T16:34:03.995Z,5.80
2018-05-12T16:36:34.834Z,5.20
2018-05-12T16:39:05.610Z,6.00
2018-05-12T16:41:36.416Z,5.00
2018-05-12T16:44:07.217Z,4.77
2018-05-12T16:46:38.042Z,5.03
2018-05-12T16:49:08.870Z,4.97
2018-05-12T16:51:39.678Z,4.60
2018-05-12T16:54:10.577Z,6.33
2018-05-12T16:56:41.430Z,5.20
2018-05-12T16:59:12.326Z,5.17
2018-05-12T17:01:43.024Z,4.80
2018-05-12T17:04:13.836Z,5.93
2018-05-12T17:06:44.648Z,5.37
2018-05-12T17:09:30.416Z,5.07
2018-05-12T17:12:01.222Z,5.70
2018-05-12T17:14:32.025Z,5.50
2018-05-12T17:17:02.852Z,5.67
2018-05-12T17:19:33.634Z,5.70
2018-05-12T17:22:04.471Z,5.00
2018-05-12T17:24:35.249Z,6.10
2018-05-12T17:27:06.250Z,6.10
2018-05-12T17:29:37.043Z,7.07
2018-05-12T17:32:07.902Z,6.60
2018-05-12T17:34:38.783Z,6.13
2018-05-12T17:37:09.617Z,6.63
2018-05-12T17:39:40.466Z,5.77
2018-05-12T17:42:12.348Z,5.80
2018-05-12T17:44:43.311Z,5.70
2018-05-12T17:47:14.225Z,6.33
2018-05-12T17:49:45.021Z,6.30
2018-05-12T17:52:15.843Z,5.70
2018-05-12T17:54:46.719Z,5.40
2018-05-12T17:57:17.756Z,5.90
2018-05-12T17:59:48.641Z,5.60
2018-05-12T18:02:19.505Z,5.77
2018-05-12T18:04:51.278Z,7.87
2018-05-12T18:07:22.078Z,6.10
2018-05-12T18:09:52.925Z,5.60
2018-05-12T18:12:23.839Z,6.63
2018-05-12T18:14:54.717Z,6.10
2018-05-12T18:17:25.678Z,6.30
2018-05-12T18:19:56.428Z,5.83
2018-05-12T18:22:27.314Z,5.30
2018-05-12T18:24:58.207Z,5.60
2018-05-12T18:27:29.084Z,5.30
2018-05-12T18:29:59.950Z,5.13
2018-05-12T18:32:30.840Z,5.60
2018-05-12T18:35:01.695Z,6.30
2018-05-12T18:37:32.518Z,5.40
2018-05-12T18:40:03.323Z,6.30
2018-05-12T18:42:34.116Z,6.00
2018-05-12T18:45:05.050Z,6.10
2018-05-12T18:47:36.831Z,5.60
2018-05-12T18:50:08.713Z,7.20
2018-05-12T18:52:40.573Z,5.90
2018-05-12T18:55:11.411Z,5.30
2018-05-12T18:57:42.360Z,5.40
2018-05-12T19:00:13.250Z,4.47
2018-05-12T19:02:44.138Z,4.90
2018-05-12T19:05:14.998Z,4.77
2018-05-12T19:07:46.024Z,6.17
2018-05-12T19:10:16.979Z,4.77
2018-05-12T19:12:47.904Z,4.80
2018-05-12T19:15:18.744Z,5.03
2018-05-12T19:17:49.584Z,6.17
2018-05-12T19:20:20.441Z,6.53
2018-05-12T19:22:51.289Z,4.73
2018-05-12T19:25:22.110Z,4.90
2018-05-12T19:27:52.965Z,5.50
2018-05-12T19:30:23.829Z,6.33
2018-05-12T19:32:54.688Z,6.87
2018-05-12T19:35:25.490Z,5.80
2018-05-12T19:37:56.324Z,7.10
2018-05-12T19:40:27.175Z,5.93
2018-05-12T19:42:58.067Z,5.80
2018-05-12T19:45:28.886Z,5.90
2018-05-12T19:47:59.740Z,6.17
2018-05-12T19:50:37.426Z,5.70
2018-05-12T19:53:08.366Z,6.17
2018-05-12T19:55:39.308Z,5.47
2018-05-12T19:58:10.334Z,4.97
2018-05-12T20:00:42.214Z,5.33
2018-05-12T20:03:13.155Z,5.00
2018-05-12T20:05:44.062Z,5.30
2018-05-12T20:08:14.916Z,6.80
2018-05-12T20:10:47.904Z,5.53
2018-05-12T20:13:19.694Z,5.03
2018-05-12T20:15:50.644Z,4.90
2018-05-12T20:18:22.472Z,5.77
2018-05-12T20:20:53.330Z,4.67
2018-05-12T20:23:24.284Z,7.53
2018-05-12T20:25:55.139Z,7.97
2018-05-12T20:28:26.024Z,7.03
2018-05-12T20:30:57.084Z,5.97
2018-05-12T20:33:28.002Z,13.37
2018-05-12T20:35:58.877Z,8.97
2018-05-12T20:38:29.860Z,8.63
2018-05-12T20:41:00.724Z,8.30
2018-05-12T20:43:31.580Z,7.60
2018-05-12T20:46:02.391Z,8.80
2018-05-12T20:48:33.235Z,7.60
2018-05-12T20:51:04.134Z,7.20
2018-05-12T20:53:35.145Z,8.47
2018-05-12T20:56:06.143Z,8.00
2018-05-12T20:58:36.976Z,6.80
2018-05-12T21:01:07.799Z,8.47
2018-05-12T21:03:38.747Z,7.10
2018-05-12T21:06:09.576Z,6.00
2018-05-12T21:08:40.367Z,7.00
2018-05-12T21:11:11.181Z,6.30
2018-05-12T21:13:41.965Z,7.80
2018-05-12T21:16:12.908Z,7.23
2018-05-12T21:18:43.716Z,7.77
2018-05-12T21:21:14.511Z,9.00
2018-05-12T21:23:45.360Z,8.90
2018-05-12T21:26:16.106Z,7.87
2018-05-12T21:28:46.908Z,9.23
2018-05-12T21:31:17.762Z,9.87
2018-05-12T21:33:48.609Z,8.90
2018-05-12T21:36:19.439Z,9.10
2018-05-12T21:38:50.277Z,9.93
2018-05-12T21:41:21.117Z,9.40
2018-05-12T21:43:51.925Z,9.27
2018-05-12T21:46:22.723Z,8.93
2018-05-12T21:48:53.565Z,9.80
2018-05-12T21:51:24.376Z,8.90
2018-05-12T21:53:55.176Z,9.90
2018-05-12T21:56:26.006Z,9.17
2018-05-12T21:58:56.870Z,8.87
2018-05-12T22:01:27.677Z,9.17
2018-05-12T22:03:58.485Z,10.30
2018-05-12T22:06:29.296Z,9.20
2018-05-12T22:09:00.150Z,10.30
2018-05-12T22:11:30.989Z,10.70
2018-05-12T22:14:01.826Z,9.90
2018-05-12T22:16:32.741Z,9.07
2018-05-12T22:19:03.607Z,10.43
2018-05-12T22:21:34.389Z,9.03
2018-05-12T22:24:05.252Z,11.23
2018-05-12T22:26:36.033Z,9.10
2018-05-12T22:29:06.876Z,10.27
2018-05-12T22:31:37.696Z,10.73
2018-05-12T22:34:08.531Z,9.73
2018-05-12T22:36:39.336Z,10.53
2018-05-12T22:39:10.151Z,10.40
2018-05-12T22:41:40.925Z,9.20
2018-05-12T22:44:11.729Z,10.33
2018-05-12T22:46:42.538Z,11.03
2018-05-12T22:49:13.439Z,10.40
2018-05-12T22:51:44.268Z,11.70
2018-05-12T22:54:15.069Z,9.77
2018-05-12T22:56:45.909Z,9.57
2018-05-12T22:59:16.715Z,10.00
2018-05-12T23:01:47.503Z,9.30
2018-05-12T23:04:18.319Z,9.80
2018-05-12T23:06:49.128Z,10.87
2018-05-12T23:09:20.597Z,10.57
2018-05-12T23:11:52.052Z,10.20
2018-05-12T23:14:22.865Z,9.87
2018-05-12T23:16:53.708Z,10.53
2018-05-12T23:19:24.526Z,12.20
2018-05-12T23:21:55.336Z,12.07
2018-05-12T23:24:26.120Z,12.43
2018-05-12T23:26:56.960Z,12.23
2018-05-12T23:29:27.781Z,18.40
2018-05-12T23:31:58.563Z,11.93
2018-05-12T23:34:29.382Z,10.73
2018-05-12T23:37:00.180Z,13.40
2018-05-12T23:39:31.065Z,13.17
2018-05-12T23:42:01.858Z,11.87
2018-05-12T23:44:32.656Z,12.00
2018-05-12T23:47:03.417Z,11.83
2018-05-12T23:49:34.250Z,12.10
2018-05-12T23:52:05.052Z,12.33
2018-05-12T23:54:35.945Z,11.93
2018-05-12T23:57:06.729Z,12.67
2018-05-12T23:59:37.524Z,11.40
